Hauptseite
METAR-TAF:

METAR-TAF

Flughäfen :

Kuala Lumpur, Malaysia

Flughafen Kuala Lumpur

Breite: 02-44N, Länge: 101-42E, Höhe: 21 m

Beobachtung

Neuester Wetterbericht von vor 16 Minuten, um 21:30 UTC
Windstille
Temperatur 26°C
Luftfeuchtigkeit 84%
Luftdruck 1008 hPa
Sichtweite 10 km oder mehr
Leicht bewölkt in der Höhe von 1700 ft, Kumulonimbus.
Aufgelockert bewölkt in der Höhe von 14000 ft
Durchbrochene Bewölkung in der Höhe von 28000 ft

METAR: WMKK 252130Z 00000KT 9999 FEW017CB SCT140 BKN280 26/23 Q1008 NOSIG

Zeit: 05:46 (21:46 UTC)

Prognose

Neuester Wetterbericht von vor 4 Stunden und 46 Minuten, um 17:00 UTC
Gültige Prognose vom 25 um 18 UTC bis 27 um 00 UTC
Wind 5 kt aus Nordost
Sichtweite 10 km oder mehr
Leicht bewölkt in der Höhe von 1800 ft

TAF: WMKK 251700Z 2518/2700 05005KT 9999 FEW018

Wetterbeobachtungen und Prognosen von mehr als 4000 Flughäfen (METAR und TAF Bericht).

Die verfügbaren Stationen werden durch gelbe und rote Markierungen auf der Karte dargestellt.

Führen Sie die Maus auf sie, um den Namen der Station zu sehen.

Darauf klicken, um die Beobachtung von Wetterbeobachtungen und Prognosen zu sehen.

Um die Karte zu ändern : klicken Sie auf den grünen Tasten mit einem schwarzen Kreuz Zum Vergrößern, auf den grünen Button mit einem Gedankenstrich zu verkleinern, oder auf die grünen Pfeile für benachbarte Karten.


METAR-TAF: